createdAt,value
2023-05-06T00:02:25.817Z,24.15
2023-05-06T00:04:53.905Z,23.85
2023-05-06T00:07:22.451Z,23.25
2023-05-06T00:09:51.628Z,24.20
2023-05-06T00:14:46.973Z,23.27
2023-05-06T00:17:14.939Z,23.67
2023-05-06T00:19:44.469Z,24.60
2023-05-06T00:22:12.370Z,26.88
2023-05-06T00:24:40.155Z,31.85
2023-05-06T00:27:09.275Z,30.85
2023-05-06T00:29:39.430Z,30.45
2023-05-06T00:32:07.281Z,31.67
2023-05-06T00:34:35.179Z,28.90
2023-05-06T00:37:03.184Z,28.65
2023-05-06T00:39:31.167Z,27.90
2023-05-06T00:42:02.273Z,31.10
2023-05-06T00:44:31.813Z,29.77
2023-05-06T00:47:00.772Z,30.02
2023-05-06T00:49:29.159Z,29.10
2023-05-06T00:51:57.364Z,31.90
2023-05-06T00:54:26.514Z,31.63
2023-05-06T00:59:21.905Z,38.88
2023-05-06T01:01:52.186Z,40.22
2023-05-06T01:04:19.975Z,48.05
2023-05-06T01:06:52.705Z,48.15
2023-05-06T01:09:22.549Z,41.90
2023-05-06T01:11:53.392Z,36.60
2023-05-06T01:14:27.568Z,30.60
2023-05-06T01:17:00.191Z,36.13
2023-05-06T01:19:38.893Z,35.10
2023-05-06T01:22:10.633Z,35.78
2023-05-06T01:24:41.505Z,46.60
2023-05-06T01:27:10.398Z,37.50
2023-05-06T01:29:41.760Z,39.50
2023-05-06T01:32:27.422Z,41.05
2023-05-06T01:35:01.175Z,35.95
2023-05-06T01:37:33.393Z,36.72
2023-05-06T01:40:03.813Z,45.75
2023-05-06T01:42:32.474Z,36.38
2023-05-06T01:45:04.076Z,41.05
2023-05-06T01:47:32.071Z,40.88
2023-05-06T01:49:59.810Z,46.30
2023-05-06T01:52:27.847Z,41.55
2023-05-06T01:54:55.621Z,36.65
2023-05-06T01:57:24.738Z,40.20
2023-05-06T01:59:52.650Z,40.85
2023-05-06T02:02:20.504Z,35.42
2023-05-06T02:04:48.239Z,32.17
2023-05-06T02:07:16.028Z,31.33
2023-05-06T02:09:43.821Z,30.88
2023-05-06T02:12:11.709Z,31.08
2023-05-06T02:14:42.762Z,31.30
2023-05-06T02:17:10.676Z,28.23
2023-05-06T02:19:38.440Z,29.15
2023-05-06T02:22:06.185Z,27.55
2023-05-06T02:24:33.985Z,27.42
2023-05-06T02:27:02.278Z,27.75
2023-05-06T02:29:30.043Z,30.90
2023-05-06T02:31:59.237Z,34.90
2023-05-06T02:36:54.575Z,33.33
2023-05-06T02:39:22.487Z,33.60
2023-05-06T02:41:50.249Z,29.63
2023-05-06T02:44:18.151Z,32.40
2023-05-06T02:46:46.072Z,32.28
2023-05-06T02:49:15.360Z,30.20
2023-05-06T02:51:43.270Z,31.38
2023-05-06T02:54:11.039Z,47.83
2023-05-06T02:56:38.790Z,35.47
2023-05-06T02:59:07.030Z,36.60
2023-05-06T03:01:34.795Z,34.55
2023-05-06T03:04:02.905Z,33.17
2023-05-06T03:06:32.639Z,37.88
2023-05-06T03:09:00.403Z,45.20
2023-05-06T03:11:30.804Z,35.33
2023-05-06T03:13:58.961Z,40.30
2023-05-06T03:16:26.747Z,43.45
2023-05-06T03:18:54.484Z,45.92
2023-05-06T03:21:22.390Z,38.80
2023-05-06T03:23:51.594Z,36.13
2023-05-06T03:26:19.404Z,35.90
2023-05-06T03:28:47.234Z,58.58
2023-05-06T03:31:15.025Z,33.17
2023-05-06T03:33:43.025Z,33.75
2023-05-06T03:36:12.773Z,33.88
2023-05-06T03:38:40.709Z,35.67
2023-05-06T03:41:09.886Z,64.97
2023-05-06T03:46:05.558Z,45.40
2023-05-06T03:48:33.379Z,43.35
2023-05-06T03:51:01.244Z,44.15
2023-05-06T03:53:29.148Z,45.30
2023-05-06T03:55:56.935Z,57.03
2023-05-06T03:58:26.385Z,47.40
2023-05-06T04:00:54.157Z,42.90
2023-05-06T04:03:22.033Z,51.00
2023-05-06T04:05:50.670Z,54.17
2023-05-06T04:08:18.457Z,59.80
2023-05-06T04:10:46.597Z,47.13
2023-05-06T04:13:14.412Z,42.45
2023-05-06T04:15:43.573Z,46.03
2023-05-06T04:20:39.102Z,54.08
2023-05-06T04:23:06.979Z,39.58
2023-05-06T04:25:35.820Z,52.95
2023-05-06T04:28:03.588Z,48.90
2023-05-06T04:30:31.365Z,49.78
2023-05-06T04:33:00.515Z,49.53
2023-05-06T04:37:56.661Z,46.25
2023-05-06T04:40:26.413Z,45.97
2023-05-06T04:42:54.252Z,44.03
2023-05-06T04:45:22.297Z,50.85
2023-05-06T04:47:50.113Z,49.88
2023-05-06T04:50:19.484Z,42.78
2023-05-06T04:52:47.250Z,46.80
2023-05-06T04:55:15.123Z,42.78
2023-05-06T04:57:45.083Z,43.20
2023-05-06T05:00:14.640Z,44.83
2023-05-06T05:02:42.503Z,44.78
2023-05-06T05:05:10.766Z,37.42
2023-05-06T05:07:40.049Z,41.92
2023-05-06T05:15:05.341Z,42.83
2023-05-06T05:17:33.193Z,42.83
2023-05-06T05:20:01.078Z,41.25
2023-05-06T05:22:28.801Z,48.92
2023-05-06T05:24:57.976Z,40.17
2023-05-06T05:27:25.912Z,40.40
2023-05-06T05:29:53.656Z,38.85
2023-05-06T05:32:22.813Z,37.60
2023-05-06T05:34:50.602Z,39.60
2023-05-06T05:37:18.343Z,42.70
2023-05-06T05:39:46.080Z,39.10
2023-05-06T05:42:15.192Z,41.58
2023-05-06T05:47:10.629Z,36.72
2023-05-06T05:49:38.348Z,35.55
2023-05-06T05:52:07.227Z,39.30
2023-05-06T05:54:35.057Z,36.42
2023-05-06T05:57:03.036Z,35.40
2023-05-06T05:59:32.904Z,38.30
2023-05-06T06:02:00.646Z,38.60
2023-05-06T06:04:28.490Z,35.08
2023-05-06T06:06:57.893Z,36.10
2023-05-06T06:09:25.727Z,35.38
2023-05-06T06:11:53.478Z,35.10
2023-05-06T06:14:21.193Z,35.45
2023-05-06T06:16:50.354Z,35.22
2023-05-06T06:19:18.203Z,33.40
2023-05-06T06:21:45.913Z,33.63
2023-05-06T06:24:13.848Z,33.45
2023-05-06T06:26:41.612Z,33.97
2023-05-06T06:29:09.389Z,34.25
2023-05-06T06:31:39.720Z,33.17
2023-05-06T06:34:12.517Z,33.25
2023-05-06T06:36:45.112Z,33.95
2023-05-06T06:39:13.055Z,32.20
2023-05-06T06:41:40.956Z,32.78
2023-05-06T06:44:08.744Z,30.98
2023-05-06T06:46:36.598Z,30.90
2023-05-06T06:49:04.563Z,31.25
2023-05-06T06:51:33.798Z,31.23
2023-05-06T06:54:01.574Z,31.20
2023-05-06T06:56:29.357Z,30.95
2023-05-06T06:58:57.245Z,30.33
2023-05-06T07:01:25.056Z,28.80
2023-05-06T07:03:52.868Z,29.75
2023-05-06T07:06:20.681Z,28.50
2023-05-06T07:08:49.849Z,31.15
2023-05-06T07:11:17.797Z,29.42
2023-05-06T07:13:45.608Z,28.30
2023-05-06T07:16:13.344Z,28.33
2023-05-06T07:18:41.157Z,27.77
2023-05-06T07:21:08.969Z,27.08
2023-05-06T07:23:36.749Z,27.95
2023-05-06T07:26:06.033Z,27.00
2023-05-06T07:28:33.828Z,27.08
2023-05-06T07:31:01.612Z,26.88
2023-05-06T07:33:29.444Z,27.30
2023-05-06T07:35:57.211Z,26.02
2023-05-06T07:38:25.082Z,26.45
2023-05-06T07:40:53.031Z,25.33
2023-05-06T07:43:22.934Z,25.02
2023-05-06T07:45:50.892Z,24.98
2023-05-06T07:48:20.149Z,23.70
2023-05-06T07:50:48.173Z,26.35
2023-05-06T07:53:16.019Z,23.90
2023-05-06T07:55:43.756Z,24.83
2023-05-06T07:58:11.606Z,26.08
2023-05-06T08:00:40.929Z,25.38
2023-05-06T08:03:08.799Z,25.42
2023-05-06T08:05:36.727Z,26.25
2023-05-06T08:08:04.953Z,26.45
2023-05-06T08:10:32.739Z,26.50
2023-05-06T08:13:00.585Z,25.83
2023-05-06T08:15:28.479Z,26.65
2023-05-06T08:18:02.105Z,26.05
2023-05-06T08:20:35.109Z,25.17
2023-05-06T08:23:02.837Z,25.80
2023-05-06T08:25:30.745Z,25.40
2023-05-06T08:27:58.574Z,25.45
2023-05-06T08:30:26.509Z,23.92
2023-05-06T08:32:54.330Z,25.13
2023-05-06T08:35:23.490Z,24.85
2023-05-06T08:37:51.272Z,23.55
2023-05-06T08:40:21.035Z,23.38
2023-05-06T08:42:49.794Z,23.58
2023-05-06T08:45:18.446Z,21.65
2023-05-06T08:47:46.959Z,19.75
2023-05-06T08:50:14.889Z,19.98
2023-05-06T08:52:44.000Z,20.90
2023-05-06T08:55:12.365Z,21.45
2023-05-06T08:57:41.358Z,20.13
2023-05-06T09:00:11.182Z,21.05
2023-05-06T09:02:41.310Z,21.08
2023-05-06T09:05:11.442Z,19.60
2023-05-06T09:07:39.598Z,19.15
2023-05-06T09:10:13.979Z,18.70
2023-05-06T09:12:41.983Z,19.23
2023-05-06T09:15:10.958Z,18.67
2023-05-06T09:17:39.356Z,19.00
2023-05-06T09:20:09.719Z,17.90
2023-05-06T09:22:39.352Z,18.42
2023-05-06T09:25:09.823Z,17.98
2023-05-06T09:27:37.930Z,18.70
2023-05-06T09:30:07.681Z,19.10
2023-05-06T09:32:39.310Z,18.83
2023-05-06T09:35:09.386Z,18.98
2023-05-06T09:37:37.377Z,19.67
2023-05-06T09:40:06.073Z,17.73
2023-05-06T09:42:35.771Z,18.17
2023-05-06T09:45:04.065Z,18.13
2023-05-06T09:47:34.998Z,18.75
2023-05-06T09:50:03.548Z,19.92
2023-05-06T09:52:31.881Z,19.58
2023-05-06T09:54:59.719Z,17.60
2023-05-06T09:57:27.812Z,17.60
2023-05-06T09:59:57.083Z,17.35
2023-05-06T10:02:25.372Z,19.25
2023-05-06T10:07:23.761Z,18.85
2023-05-06T10:09:52.219Z,19.08
2023-05-06T10:12:20.402Z,19.83
2023-05-06T10:14:48.479Z,19.30
2023-05-06T10:17:19.546Z,18.23
2023-05-06T10:19:47.886Z,19.33
2023-05-06T10:22:19.207Z,18.13
2023-05-06T10:24:50.076Z,18.45
2023-05-06T10:27:19.924Z,19.10
2023-05-06T10:29:49.215Z,18.52
2023-05-06T10:32:21.460Z,19.35
2023-05-06T10:34:55.119Z,18.25
2023-05-06T10:37:25.905Z,19.40
2023-05-06T10:39:55.248Z,19.40
2023-05-06T10:42:27.606Z,20.00
2023-05-06T10:44:59.236Z,19.73
2023-05-06T10:47:28.625Z,20.40
2023-05-06T10:50:21.904Z,19.30
2023-05-06T10:52:52.408Z,19.75
2023-05-06T10:55:28.463Z,19.00
2023-05-06T10:57:57.434Z,18.98
2023-05-06T11:00:25.604Z,19.17
2023-05-06T11:02:58.902Z,19.90
2023-05-06T11:05:26.797Z,18.42
2023-05-06T11:07:55.127Z,18.15
2023-05-06T11:10:33.086Z,18.70
2023-05-06T11:13:19.934Z,19.55
2023-05-06T11:15:50.693Z,19.65
2023-05-06T11:18:44.863Z,19.17
2023-05-06T11:21:40.677Z,19.83
2023-05-06T11:24:13.339Z,19.58
2023-05-06T11:26:44.727Z,18.67
2023-05-06T11:29:12.608Z,18.17
2023-05-06T11:31:41.818Z,17.98
2023-05-06T11:34:14.287Z,17.65
2023-05-06T11:36:50.872Z,17.85
2023-05-06T11:39:18.633Z,17.60
2023-05-06T11:41:46.379Z,17.73
2023-05-06T11:44:25.530Z,17.80
2023-05-06T11:46:53.989Z,17.50
2023-05-06T11:51:50.821Z,17.30
2023-05-06T11:54:20.367Z,17.80
2023-05-06T11:56:50.226Z,17.15
2023-05-06T11:59:19.538Z,17.42
2023-05-06T12:01:47.502Z,18.15
2023-05-06T12:04:15.323Z,17.10
2023-05-06T12:06:44.630Z,23.70
2023-05-06T12:09:13.343Z,18.05
2023-05-06T12:11:43.203Z,18.35
2023-05-06T12:14:12.897Z,17.73
2023-05-06T12:16:41.229Z,17.80
2023-05-06T12:19:09.228Z,18.63
2023-05-06T12:21:40.443Z,18.83
2023-05-06T12:24:09.676Z,17.83
2023-05-06T12:26:47.233Z,17.52
2023-05-06T12:29:19.057Z,19.40
2023-05-06T12:31:48.136Z,18.75
2023-05-06T12:34:17.302Z,20.15
2023-05-06T12:36:46.751Z,21.58
2023-05-06T12:39:17.540Z,18.70
2023-05-06T12:41:46.447Z,18.38
2023-05-06T12:44:37.267Z,18.23
2023-05-06T12:47:07.454Z,20.23
2023-05-06T12:49:49.081Z,18.38
2023-05-06T12:52:17.300Z,18.33
2023-05-06T12:54:46.977Z,19.02
2023-05-06T12:57:14.774Z,18.52
2023-05-06T12:59:44.160Z,17.92
2023-05-06T13:02:11.963Z,18.08
2023-05-06T13:04:39.804Z,18.23
2023-05-06T13:07:07.750Z,17.92
2023-05-06T13:09:35.576Z,18.63
2023-05-06T13:12:05.471Z,17.25
2023-05-06T13:14:33.257Z,18.67
2023-05-06T13:17:04.681Z,18.92
2023-05-06T13:19:33.425Z,17.35
2023-05-06T13:22:01.755Z,20.13
2023-05-06T13:24:33.037Z,19.52
2023-05-06T13:27:01.417Z,17.40
2023-05-06T13:31:58.488Z,20.10
2023-05-06T13:34:26.270Z,18.65
2023-05-06T13:36:54.630Z,18.15
2023-05-06T13:41:50.581Z,17.63
2023-05-06T13:44:18.459Z,17.98
2023-05-06T13:46:47.941Z,19.15
2023-05-06T13:49:15.974Z,19.92
2023-05-06T13:51:43.737Z,19.27
2023-05-06T13:54:11.533Z,19.40
2023-05-06T13:56:39.359Z,19.05
2023-05-06T13:59:08.242Z,19.35
2023-05-06T14:01:36.802Z,18.92
2023-05-06T14:04:06.149Z,18.92
2023-05-06T14:06:33.901Z,18.90
2023-05-06T14:09:01.664Z,18.48
2023-05-06T14:11:29.483Z,18.90
2023-05-06T14:13:57.405Z,19.65
2023-05-06T14:16:25.338Z,19.13
2023-05-06T14:18:53.549Z,18.23
2023-05-06T14:21:23.273Z,18.92
2023-05-06T14:23:51.080Z,18.83
2023-05-06T14:26:18.825Z,19.58
2023-05-06T14:28:46.640Z,19.70
2023-05-06T14:31:14.499Z,19.95
2023-05-06T14:33:42.282Z,18.35
2023-05-06T14:36:10.575Z,17.20
2023-05-06T14:38:39.738Z,19.35
2023-05-06T14:41:07.605Z,19.88
2023-05-06T14:43:35.436Z,19.10
2023-05-06T14:46:03.288Z,19.33
2023-05-06T14:48:32.032Z,19.00
2023-05-06T14:51:00.470Z,19.55
2023-05-06T14:53:28.278Z,19.60
2023-05-06T14:55:57.413Z,19.90
2023-05-06T14:58:25.182Z,19.20
2023-05-06T15:00:52.982Z,26.30
2023-05-06T15:03:20.921Z,18.30
2023-05-06T15:05:50.619Z,18.85
2023-05-06T15:08:18.349Z,18.95
2023-05-06T15:10:46.154Z,18.80
2023-05-06T15:13:15.467Z,18.80
2023-05-06T15:15:43.654Z,18.25
2023-05-06T15:18:13.187Z,18.65
2023-05-06T15:20:41.061Z,18.52
2023-05-06T15:23:09.022Z,18.40
2023-05-06T15:25:37.109Z,19.02
2023-05-06T15:28:06.009Z,17.98
2023-05-06T15:33:03.463Z,19.88
2023-05-06T15:35:31.678Z,17.30
2023-05-06T15:37:59.623Z,20.95
2023-05-06T15:40:27.768Z,23.38
2023-05-06T15:42:55.868Z,22.67
2023-05-06T15:45:23.638Z,22.50
2023-05-06T15:47:54.112Z,81.97
2023-05-06T15:50:32.893Z,45.30
2023-05-06T15:53:02.467Z,174.30
2023-05-06T15:55:35.080Z,32.15
2023-05-06T15:58:09.110Z,26.45
2023-05-06T16:00:36.951Z,24.17
2023-05-06T16:03:08.073Z,28.13
2023-05-06T16:05:38.199Z,73.65
2023-05-06T16:08:06.353Z,43.55
2023-05-06T16:10:35.498Z,21.43
2023-05-06T16:13:03.583Z,23.13
2023-05-06T16:15:31.410Z,22.03
2023-05-06T16:17:59.263Z,22.98
2023-05-06T16:20:29.633Z,22.90
2023-05-06T16:22:57.450Z,21.40
2023-05-06T16:25:27.430Z,21.73
2023-05-06T16:27:55.925Z,21.38
2023-05-06T16:30:24.111Z,20.85
2023-05-06T16:32:52.084Z,20.53
2023-05-06T16:35:19.986Z,20.42
2023-05-06T16:37:49.141Z,20.17
2023-05-06T16:42:46.431Z,20.75
2023-05-06T16:45:14.412Z,20.58
2023-05-06T16:47:42.412Z,21.20
2023-05-06T16:50:10.957Z,19.43
2023-05-06T16:52:39.057Z,20.52
2023-05-06T16:55:09.243Z,20.67
2023-05-06T16:57:37.510Z,20.13
2023-05-06T17:00:11.986Z,20.75
2023-05-06T17:02:41.007Z,20.00
2023-05-06T17:05:09.377Z,20.23
2023-05-06T17:07:37.150Z,20.90
2023-05-06T17:10:05.378Z,20.10
2023-05-06T17:12:34.596Z,20.27
2023-05-06T17:15:02.624Z,21.08
2023-05-06T17:17:30.749Z,20.30
2023-05-06T17:19:59.324Z,19.87
2023-05-06T17:22:27.142Z,19.58
2023-05-06T17:24:55.086Z,20.00
2023-05-06T17:27:23.114Z,19.65
2023-05-06T17:29:52.843Z,18.60
2023-05-06T17:32:20.840Z,20.42
2023-05-06T17:34:48.706Z,20.48
2023-05-06T17:37:16.525Z,18.38
2023-05-06T17:39:46.250Z,19.33
2023-05-06T17:42:14.061Z,17.80
2023-05-06T17:44:42.845Z,18.88
2023-05-06T17:47:12.175Z,21.58
2023-05-06T17:49:39.977Z,18.30
2023-05-06T17:52:07.787Z,18.70
2023-05-06T17:54:36.558Z,19.27
2023-05-06T17:57:04.657Z,18.15
2023-05-06T17:59:32.612Z,19.00
2023-05-06T18:02:01.157Z,19.10
2023-05-06T18:04:30.401Z,18.08
2023-05-06T18:06:58.166Z,18.90
2023-05-06T18:09:25.943Z,18.52
2023-05-06T18:11:53.732Z,18.40
2023-05-06T18:14:21.609Z,18.73
2023-05-06T18:16:49.378Z,19.63
2023-05-06T18:19:17.172Z,19.25
2023-05-06T18:21:47.010Z,19.08
2023-05-06T18:24:16.614Z,18.50
2023-05-06T18:26:46.092Z,18.45
2023-05-06T18:29:14.425Z,19.10
2023-05-06T18:31:42.801Z,19.75
2023-05-06T18:34:10.664Z,18.90
2023-05-06T18:36:38.832Z,19.08
2023-05-06T18:39:08.270Z,18.47
2023-05-06T18:41:36.311Z,20.30
2023-05-06T18:44:04.673Z,19.48
2023-05-06T18:46:32.507Z,19.58
2023-05-06T18:49:00.926Z,18.85
2023-05-06T18:51:28.877Z,18.27
2023-05-06T18:53:56.836Z,18.80
2023-05-06T18:56:26.064Z,19.13
2023-05-06T18:58:53.889Z,19.38
2023-05-06T19:01:21.958Z,19.63
2023-05-06T19:03:49.930Z,20.60
2023-05-06T19:06:17.797Z,19.63
2023-05-06T19:08:45.591Z,20.58
2023-05-06T19:11:15.613Z,20.05
2023-05-06T19:13:45.084Z,19.50
2023-05-06T19:16:13.461Z,19.60
2023-05-06T19:18:41.492Z,19.40
2023-05-06T19:21:10.217Z,18.92
2023-05-06T19:23:38.097Z,18.88
2023-05-06T19:26:06.780Z,19.55
2023-05-06T19:28:34.883Z,19.10
2023-05-06T19:31:07.588Z,18.73
2023-05-06T19:33:35.455Z,19.40
2023-05-06T19:36:03.386Z,19.25
2023-05-06T19:38:31.537Z,19.80
2023-05-06T19:40:59.363Z,20.20
2023-05-06T19:43:27.205Z,20.33
2023-05-06T19:45:55.114Z,20.52
2023-05-06T19:48:24.553Z,21.25
2023-05-06T19:50:54.072Z,21.38
2023-05-06T19:53:22.815Z,21.02
2023-05-06T19:55:50.842Z,21.20
2023-05-06T19:58:19.361Z,21.90
2023-05-06T20:00:47.144Z,21.38
2023-05-06T20:03:15.088Z,21.67
2023-05-06T20:05:44.302Z,21.52
2023-05-06T20:10:40.035Z,21.85
2023-05-06T20:13:08.049Z,21.05
2023-05-06T20:15:36.498Z,21.52
2023-05-06T20:18:04.512Z,21.10
2023-05-06T20:20:34.351Z,21.50
2023-05-06T20:23:04.096Z,22.30
2023-05-06T20:25:32.403Z,21.85
2023-05-06T20:28:00.467Z,21.97
2023-05-06T20:30:28.287Z,22.98
2023-05-06T20:32:56.356Z,23.23
2023-05-06T20:35:24.434Z,22.42
2023-05-06T20:37:54.432Z,23.30
2023-05-06T20:40:23.893Z,21.73
2023-05-06T20:42:51.780Z,20.98
2023-05-06T20:45:19.616Z,21.92
2023-05-06T20:47:47.526Z,21.05
2023-05-06T20:50:17.265Z,22.10
2023-05-06T20:52:46.157Z,22.00
2023-05-06T20:55:14.665Z,21.95
2023-05-06T20:57:46.966Z,22.38
2023-05-06T21:00:14.968Z,21.90
2023-05-06T21:02:42.905Z,21.65
2023-05-06T21:05:11.491Z,23.23
2023-05-06T21:07:39.621Z,23.70
2023-05-06T21:10:07.999Z,24.33
2023-05-06T21:12:35.831Z,23.27
2023-05-06T21:15:05.848Z,23.02
2023-05-06T21:17:33.830Z,22.60
2023-05-06T21:20:03.546Z,24.27
2023-05-06T21:22:32.027Z,24.23
2023-05-06T21:24:59.865Z,24.65
2023-05-06T21:27:27.700Z,23.92
2023-05-06T21:29:55.523Z,24.92
2023-05-06T21:32:24.755Z,23.45
2023-05-06T21:34:52.614Z,24.02
2023-05-06T21:37:20.453Z,24.23
2023-05-06T21:39:48.241Z,23.60
2023-05-06T21:42:16.863Z,24.40
2023-05-06T21:44:44.694Z,22.77
2023-05-06T21:47:12.488Z,23.33
2023-05-06T21:49:41.652Z,23.52
2023-05-06T21:54:37.068Z,24.63
2023-05-06T21:57:08.089Z,23.58
2023-05-06T21:59:36.363Z,24.13
2023-05-06T22:02:04.757Z,23.83
2023-05-06T22:04:32.664Z,24.27
2023-05-06T22:07:01.833Z,25.00
2023-05-06T22:11:57.843Z,25.40
2023-05-06T22:14:37.282Z,25.33
2023-05-06T22:17:10.564Z,25.63
2023-05-06T22:19:38.718Z,25.55
2023-05-06T22:22:08.452Z,26.10
2023-05-06T22:24:36.246Z,26.52
2023-05-06T22:27:04.079Z,25.23
2023-05-06T22:29:31.909Z,26.60
2023-05-06T22:31:59.758Z,26.60
2023-05-06T22:34:27.665Z,26.60
2023-05-06T22:36:57.605Z,26.83
2023-05-06T22:39:27.408Z,27.95
2023-05-06T22:44:22.721Z,28.02
2023-05-06T22:46:50.479Z,27.77
2023-05-06T22:49:19.600Z,28.27
2023-05-06T22:54:16.498Z,27.77
2023-05-06T22:56:45.643Z,28.88
2023-05-06T23:01:43.405Z,28.88
2023-05-06T23:04:11.374Z,30.50
2023-05-06T23:06:40.006Z,28.67
2023-05-06T23:09:07.972Z,29.85
2023-05-06T23:11:35.832Z,29.45
2023-05-06T23:14:05.079Z,29.48
2023-05-06T23:16:33.161Z,29.27
2023-05-06T23:19:01.027Z,29.93
2023-05-06T23:21:29.310Z,29.48
2023-05-06T23:23:57.047Z,30.57
2023-05-06T23:26:24.936Z,29.65
2023-05-06T23:28:52.680Z,29.33
2023-05-06T23:31:21.910Z,28.92
2023-05-06T23:33:49.767Z,29.13
2023-05-06T23:36:17.724Z,29.80
2023-05-06T23:38:45.458Z,28.45
2023-05-06T23:41:16.085Z,29.67
2023-05-06T23:43:43.827Z,30.05
2023-05-06T23:46:11.746Z,29.90
2023-05-06T23:48:41.027Z,30.70
2023-05-06T23:53:37.253Z,28.67
2023-05-06T23:56:05.552Z,27.90
2023-05-06T23:58:33.570Z,29.67
